Time;durP1;ratioP1;P1;durP2;ratioP2;P2;SDS_P1;SDS_P2;PMS_P1;PMS_P2;Temp;Humidity;BMP_temperature;BMP_pressure;BME280_temperature;BME280_humidity;BME280_pressure;Samples;Min_cycle;Max_cycle;Signal;HPM_P1;HPM_P2
2023/07/05 00:01:59;;;;;;;12.77;5.25;;;16.10;99.90;;;;;;4880612;29;20122;-69
2023/07/05 00:04:25;;;;;;;13.30;5.90;;;16.00;99.90;;;;;;4897401;29;20057;-70
2023/07/05 00:06:53;;;;;;;10.20;5.05;;;16.10;99.90;;;;;;4897234;29;20056;-70
2023/07/05 00:09:19;;;;;;;11.48;4.97;;;16.10;99.90;;;;;;4897265;29;20053;-70
2023/07/05 00:11:46;;;;;;;11.27;4.90;;;16.10;99.90;;;;;;4893518;29;20060;-70
2023/07/05 00:14:11;;;;;;;9.68;5.32;;;16.10;99.90;;;;;;4890419;29;20152;-69
2023/07/05 00:16:37;;;;;;;7.55;5.03;;;16.10;99.90;;;;;;4878536;29;20097;-69
2023/07/05 00:19:02;;;;;;;12.77;5.53;;;16.00;99.90;;;;;;4877482;29;20403;-69
2023/07/05 00:21:31;;;;;;;12.27;4.85;;;16.00;99.90;;;;;;4878239;29;20052;-69
2023/07/05 00:23:57;;;;;;;12.63;5.68;;;16.00;99.90;;;;;;4862628;29;20069;-70
2023/07/05 00:26:25;;;;;;;15.57;6.63;;;16.00;99.90;;;;;;4869266;29;20072;-70
2023/07/05 00:28:50;;;;;;;9.45;5.55;;;16.00;99.90;;;;;;4897144;29;20052;-69
2023/07/05 00:31:16;;;;;;;11.43;5.32;;;16.00;99.90;;;;;;4879929;29;20056;-70
2023/07/05 00:33:45;;;;;;;13.95;5.97;;;16.00;99.90;;;;;;4896960;29;20057;-70
2023/07/05 00:36:12;;;;;;;12.05;6.15;;;16.00;99.90;;;;;;4896667;29;20564;-70
2023/07/05 00:38:37;;;;;;;14.23;6.25;;;16.00;99.90;;;;;;4895558;29;20052;-70
2023/07/05 00:41:03;;;;;;;14.88;6.35;;;16.00;99.90;;;;;;4878284;29;20113;-70
2023/07/05 00:43:29;;;;;;;15.98;6.38;;;16.00;99.90;;;;;;4877041;29;20081;-70
2023/07/05 00:45:57;;;;;;;13.15;6.03;;;16.00;99.90;;;;;;4861476;29;20052;-70
2023/07/05 00:48:36;;;;;;;9.27;5.80;;;16.00;99.90;;;;;;4877905;29;20052;-70
2023/07/05 00:51:12;;;;;;;11.68;6.65;;;16.00;99.90;;;;;;4878174;29;20088;-70
2023/07/05 00:53:38;;;;;;;13.68;6.60;;;15.90;99.90;;;;;;4846015;29;20056;-71
2023/07/05 00:56:18;;;;;;;15.30;6.13;;;16.00;99.90;;;;;;4878287;29;20434;-70
2023/07/05 00:58:44;;;;;;;12.82;6.32;;;16.00;99.90;;;;;;4878244;29;20125;-71
2023/07/05 01:01:10;;;;;;;11.35;6.47;;;15.90;99.90;;;;;;4861513;29;20049;-70
2023/07/05 01:03:37;;;;;;;14.52;6.55;;;15.90;99.90;;;;;;4877742;29;20405;-71
2023/07/05 01:06:06;;;;;;;13.52;6.22;;;15.90;99.90;;;;;;4860772;29;20096;-71
2023/07/05 01:08:31;;;;;;;12.30;5.60;;;15.90;99.90;;;;;;4877413;29;20069;-70
2023/07/05 01:11:33;;;;;;;14.82;6.18;;;15.90;99.90;;;;;;4877787;29;20140;-70
2023/07/05 01:14:11;;;;;;;13.63;6.25;;;16.00;99.90;;;;;;4867285;29;20414;-70
2023/07/05 01:17:12;;;;;;;8.93;5.75;;;16.00;99.90;;;;;;4877339;29;20052;-70
2023/07/05 01:20:01;;;;;;;14.68;6.78;;;15.90;99.90;;;;;;4869551;29;20044;-70
2023/07/05 01:22:35;;;;;;;13.55;6.38;;;16.00;99.90;;;;;;4877216;29;20052;-70
2023/07/05 01:25:45;;;;;;;14.25;6.80;;;15.90;99.90;;;;;;4877446;29;20760;-70
2023/07/05 01:28:42;;;;;;;14.18;6.90;;;15.90;99.90;;;;;;4845871;29;20057;-70
2023/07/05 01:31:37;;;;;;;17.10;6.28;;;15.90;99.90;;;;;;4877781;29;20524;-71
2023/07/05 01:34:22;;;;;;;11.60;6.30;;;15.90;99.90;;;;;;4852033;29;20059;-70
2023/07/05 01:36:48;;;;;;;14.15;7.32;;;15.80;99.90;;;;;;4877355;29;20077;-71
2023/07/05 01:39:14;;;;;;;12.05;6.20;;;15.80;99.90;;;;;;4860270;29;20064;-71
2023/07/05 01:41:40;;;;;;;15.52;6.70;;;15.70;99.90;;;;;;4877368;29;20049;-70
2023/07/05 01:44:07;;;;;;;13.40;6.68;;;15.70;99.90;;;;;;4877109;29;20767;-71
2023/07/05 01:46:47;;;;;;;17.02;7.00;;;15.70;99.90;;;;;;4877027;29;20057;-71
2023/07/05 01:49:15;;;;;;;10.45;6.25;;;15.80;99.90;;;;;;4860251;29;20128;-71
2023/07/05 01:51:59;;;;;;;13.38;6.80;;;15.80;99.90;;;;;;4877056;29;20115;-71
2023/07/05 01:54:40;;;;;;;11.73;6.40;;;15.80;99.90;;;;;;4876930;29;20120;-70
2023/07/05 01:57:16;;;;;;;13.98;6.95;;;15.80;99.90;;;;;;4860340;29;20532;-71
2023/07/05 02:00:05;;;;;;;13.68;7.03;;;15.70;99.90;;;;;;4876885;29;20120;-70
2023/07/05 02:02:39;;;;;;;10.90;6.60;;;15.60;99.90;;;;;;4876145;29;20095;-71
2023/07/05 02:05:08;;;;;;;17.10;7.72;;;15.70;99.90;;;;;;4860239;29;20397;-71
2023/07/05 02:07:34;;;;;;;13.35;7.28;;;15.70;99.90;;;;;;4877001;29;20430;-71
2023/07/05 02:10:00;;;;;;;12.43;6.97;;;15.70;99.90;;;;;;4859993;29;20060;-71
2023/07/05 02:12:26;;;;;;;15.05;7.18;;;15.50;99.90;;;;;;4876745;29;20728;-71
2023/07/05 02:14:52;;;;;;;14.77;8.13;;;15.60;99.90;;;;;;4860038;29;20091;-71
2023/07/05 02:17:19;;;;;;;11.95;7.32;;;15.60;99.90;;;;;;4876287;29;20049;-71
2023/07/05 02:19:45;;;;;;;22.10;8.93;;;15.70;99.90;;;;;;4876929;29;20467;-71
2023/07/05 02:22:11;;;;;;;13.13;8.00;;;15.60;99.90;;;;;;4876643;29;20088;-70
2023/07/05 02:24:37;;;;;;;13.32;7.88;;;15.60;99.90;;;;;;4876688;29;20536;-70
2023/07/05 02:27:04;;;;;;;18.80;8.52;;;15.70;99.90;;;;;;4843480;29;20127;-70
2023/07/05 02:29:30;;;;;;;15.52;7.80;;;15.60;99.90;;;;;;4839845;29;20421;-70
2023/07/05 02:31:57;;;;;;;14.38;7.10;;;15.60;99.90;;;;;;4838021;29;20129;-70
2023/07/05 02:34:23;;;;;;;12.25;7.97;;;15.50;99.90;;;;;;4839569;29;20064;-71
2023/07/05 02:36:49;;;;;;;12.63;7.57;;;15.50;99.90;;;;;;4838249;29;20057;-70
2023/07/05 02:39:15;;;;;;;12.98;7.13;;;15.50;99.90;;;;;;4839763;29;20130;-71
2023/07/05 02:41:41;;;;;;;17.15;8.38;;;15.60;99.90;;;;;;4839762;29;20128;-71
2023/07/05 02:44:06;;;;;;;14.93;9.38;;;15.60;99.90;;;;;;4839649;29;20153;-70
2023/07/05 02:46:33;;;;;;;12.50;8.32;;;15.50;99.90;;;;;;4837858;29;20061;-70
2023/07/05 02:48:58;;;;;;;14.00;8.15;;;15.60;99.90;;;;;;4838567;29;20482;-70
2023/07/05 02:51:27;;;;;;;13.85;8.32;;;15.60;99.90;;;;;;4839396;29;20084;-71
2023/07/05 02:53:53;;;;;;;14.65;8.02;;;15.60;99.90;;;;;;4839663;29;20054;-71
2023/07/05 02:56:18;;;;;;;14.73;8.02;;;15.60;99.90;;;;;;4839318;29;20163;-70
2023/07/05 02:58:44;;;;;;;13.68;7.97;;;15.60;99.90;;;;;;4839473;29;20082;-71
2023/07/05 03:01:10;;;;;;;15.60;8.38;;;15.60;99.90;;;;;;4839491;29;20517;-70
2023/07/05 03:03:36;;;;;;;13.57;8.43;;;15.60;99.90;;;;;;4839387;29;20473;-71
2023/07/05 03:06:01;;;;;;;19.95;8.68;;;15.60;99.90;;;;;;4839696;29;20118;-71
2023/07/05 03:08:28;;;;;;;15.77;7.75;;;15.60;99.90;;;;;;4842670;29;20462;-70
2023/07/05 03:11:00;;;;;;;13.70;8.60;;;15.60;99.90;;;;;;4841541;29;20390;-71
2023/07/05 03:13:27;;;;;;;;;;;15.60;99.90;;;;;;4842527;29;20144;-70
2023/07/05 03:15:53;;;;;;;16.65;8.35;;;15.60;99.90;;;;;;4841165;29;19928;-70
2023/07/05 03:18:19;;;;;;;15.82;7.97;;;15.60;99.90;;;;;;4842626;29;20064;-70
2023/07/05 03:20:46;;;;;;;18.98;7.80;;;15.60;99.90;;;;;;4842642;29;20081;-70
2023/07/05 03:23:13;;;;;;;17.92;8.80;;;15.60;99.90;;;;;;4841046;29;20069;-70
2023/07/05 03:25:39;;;;;;;17.00;8.05;;;15.60;99.90;;;;;;4846837;29;20046;-70
2023/07/05 03:28:05;;;;;;;15.02;8.23;;;15.60;99.90;;;;;;4878924;29;20056;-70
2023/07/05 03:30:33;;;;;;;15.15;8.02;;;15.50;99.90;;;;;;4862360;29;20067;-70
2023/07/05 03:32:59;;;;;;;16.05;8.02;;;15.50;99.90;;;;;;4879466;29;20496;-70
2023/07/05 03:35:25;;;;;;;11.35;7.47;;;15.50;99.90;;;;;;4879150;29;20057;-71
2023/07/05 03:37:50;;;;;;;14.35;8.15;;;15.50;99.90;;;;;;4879157;29;20049;-70
2023/07/05 03:40:16;;;;;;;15.82;8.25;;;15.50;99.90;;;;;;4862479;29;20060;-71
2023/07/05 03:42:42;;;;;;;15.15;8.35;;;15.60;99.90;;;;;;4879026;29;20081;-70
2023/07/05 03:45:08;;;;;;;14.82;7.68;;;15.50;99.90;;;;;;4879166;29;20401;-70
2023/07/05 03:47:34;;;;;;;12.57;7.28;;;15.50;99.90;;;;;;4862231;29;20056;-70
2023/07/05 03:50:00;;;;;;;13.32;7.57;;;15.60;99.90;;;;;;4879148;29;20064;-70
2023/07/05 03:52:25;;;;;;;14.18;8.05;;;15.60;99.90;;;;;;4879089;29;20085;-70
2023/07/05 03:54:51;;;;;;;12.38;7.43;;;15.60;99.90;;;;;;4861933;29;20103;-71
2023/07/05 03:57:17;;;;;;;13.75;7.55;;;15.70;99.90;;;;;;4861785;29;20061;-70
2023/07/05 03:59:43;;;;;;;12.02;7.38;;;15.80;99.90;;;;;;4878631;29;20514;-71
2023/07/05 04:02:08;;;;;;;10.93;7.38;;;15.80;99.90;;;;;;4878846;29;20056;-71
2023/07/05 04:04:34;;;;;;;11.60;7.25;;;15.80;99.90;;;;;;4878668;29;20057;-70
2023/07/05 04:07:00;;;;;;;13.88;7.43;;;15.80;99.90;;;;;;4878676;29;20420;-71
2023/07/05 04:09:26;;;;;;;9.95;7.35;;;15.90;99.90;;;;;;4883803;29;20055;-70
2023/07/05 04:11:52;;;;;;;12.68;7.22;;;15.90;99.90;;;;;;4872070;29;20061;-70
2023/07/05 04:14:18;;;;;;;11.20;7.07;;;15.90;99.90;;;;;;4884636;29;20053;-70
2023/07/05 04:16:43;;;;;;;9.60;6.38;;;16.00;99.90;;;;;;4877270;29;20053;-71
2023/07/05 04:19:09;;;;;;;10.43;5.88;;;16.00;99.90;;;;;;4878490;29;20059;-70
2023/07/05 04:21:35;;;;;;;11.77;5.82;;;16.10;99.90;;;;;;4893776;29;20052;-71
2023/07/05 04:24:01;;;;;;;8.63;5.47;;;16.00;99.90;;;;;;4897191;29;20048;-71
2023/07/05 04:26:28;;;;;;;10.27;4.90;;;16.10;99.90;;;;;;4868209;29;20146;-72
2023/07/05 04:28:55;;;;;;;8.90;4.65;;;16.00;99.90;;;;;;4859941;29;20451;-72
2023/07/05 04:31:29;;;;;;;9.45;4.50;;;16.00;99.90;;;;;;4859679;29;20049;-71
2023/07/05 04:34:00;;;;;;;10.30;4.35;;;16.10;99.90;;;;;;4858398;29;20240;-71
2023/07/05 04:36:26;;;;;;;6.00;4.53;;;16.10;99.90;;;;;;4849865;29;20448;-70
2023/07/05 04:38:51;;;;;;;8.77;4.43;;;16.10;99.90;;;;;;4840975;29;20054;-70
2023/07/05 04:41:17;;;;;;;6.00;3.95;;;16.10;99.90;;;;;;4840768;29;20053;-69
2023/07/05 04:43:43;;;;;;;6.00;3.78;;;16.00;99.90;;;;;;4840936;29;20077;-70
2023/07/05 04:46:09;;;;;;;7.03;3.60;;;16.00;99.90;;;;;;4841105;29;20093;-70
2023/07/05 04:48:34;;;;;;;7.10;3.53;;;16.00;99.90;;;;;;4840908;29;20109;-70
2023/07/05 04:51:00;;;;;;;8.20;3.70;;;15.80;99.90;;;;;;4839807;29;20081;-70
2023/07/05 04:53:28;;;;;;;4.93;4.22;;;15.70;99.90;;;;;;4840842;29;20085;-70
2023/07/05 04:55:56;;;;;;;5.85;3.70;;;15.70;99.90;;;;;;4839320;29;20061;-70
2023/07/05 04:58:23;;;;;;;6.85;3.70;;;15.60;99.90;;;;;;4839512;29;20061;-70
2023/07/05 05:00:49;;;;;;;8.98;4.15;;;15.60;99.90;;;;;;4841652;29;20050;-71
2023/07/05 05:03:17;;;;;;;7.22;3.80;;;15.50;99.90;;;;;;4840023;29;20046;-71
2023/07/05 05:05:49;;;;;;;5.07;3.75;;;15.40;99.90;;;;;;4840765;29;20141;-71
2023/07/05 05:08:15;;;;;;;5.15;3.53;;;15.40;99.90;;;;;;4840489;29;20176;-71
2023/07/05 05:10:41;;;;;;;6.05;4.28;;;15.50;99.90;;;;;;4840632;29;20065;-72
2023/07/05 05:13:07;;;;;;;6.32;4.00;;;15.40;99.90;;;;;;4840567;29;20065;-71
2023/07/05 05:15:40;;;;;;;5.60;3.33;;;15.50;99.90;;;;;;4839369;29;20070;-71
2023/07/05 05:18:07;;;;;;;4.00;3.33;;;15.50;99.90;;;;;;4840624;29;20065;-71
2023/07/05 05:20:33;;;;;;;5.10;3.60;;;15.50;99.90;;;;;;4840538;29;20092;-73
2023/07/05 05:22:59;;;;;;;6.28;3.67;;;15.40;99.90;;;;;;4851639;29;20060;-70
2023/07/05 05:25:27;;;;;;;5.07;3.47;;;15.50;99.90;;;;;;4849443;29;20053;-69
2023/07/05 05:27:53;;;;;;;6.72;3.63;;;15.30;99.90;;;;;;4886167;29;20097;-71
2023/07/05 05:30:19;;;;;;;10.35;3.92;;;15.40;99.90;;;;;;4881053;29;20505;-71
2023/07/05 05:32:46;;;;;;;7.15;3.50;;;15.50;99.90;;;;;;4896088;29;20128;-71
2023/07/05 05:35:12;;;;;;;7.43;3.33;;;15.50;99.90;;;;;;4895592;29;20509;-69
2023/07/05 05:37:38;;;;;;;5.90;3.50;;;15.40;99.90;;;;;;4885101;29;20172;-71
2023/07/05 05:40:05;;;;;;;4.65;3.35;;;15.40;99.90;;;;;;4879762;29;20052;-73
2023/07/05 05:42:31;;;;;;;6.57;3.25;;;15.40;99.90;;;;;;4898130;29;20720;-72
2023/07/05 05:44:57;;;;;;;5.68;2.95;;;15.40;99.90;;;;;;4880789;29;20096;-76
2023/07/05 05:47:23;;;;;;;8.35;3.35;;;15.70;99.90;;;;;;4909984;29;20115;-76
2023/07/05 05:49:48;;;;;;;5.72;3.42;;;15.40;99.90;;;;;;4881766;29;20056;-72
2023/07/05 05:52:14;;;;;;;5.13;3.03;;;15.30;99.90;;;;;;4884821;29;20053;-72
2023/07/05 05:54:40;;;;;;;5.72;3.13;;;15.40;99.90;;;;;;4903407;29;20048;-72
2023/07/05 05:57:06;;;;;;;5.50;3.03;;;15.40;99.90;;;;;;4882078;29;20064;-74
2023/07/05 05:59:32;;;;;;;4.70;2.75;;;15.30;99.90;;;;;;4895441;29;20057;-72
2023/07/05 06:01:58;;;;;;;4.80;3.38;;;15.30;99.90;;;;;;4895647;29;20040;-72
2023/07/05 06:04:24;;;;;;;5.50;3.22;;;15.30;99.90;;;;;;4889855;29;20470;-72
2023/07/05 06:06:50;;;;;;;11.13;3.40;;;15.40;99.90;;;;;;4870229;29;20076;-72
2023/07/05 06:09:15;;;;;;;6.25;3.10;;;15.30;99.90;;;;;;4886225;29;20092;-72
2023/07/05 06:11:41;;;;;;;5.53;3.05;;;15.30;99.90;;;;;;4867973;29;20144;-72
2023/07/05 06:14:09;;;;;;;5.75;3.38;;;15.30;99.90;;;;;;4886617;29;20052;-72
2023/07/05 06:16:34;;;;;;;4.65;2.90;;;15.20;99.90;;;;;;4862423;29;20049;-73
2023/07/05 06:19:00;;;;;;;6.25;3.28;;;15.30;99.90;;;;;;4876782;29;20041;-73
2023/07/05 06:21:26;;;;;;;5.53;3.58;;;15.50;99.90;;;;;;4877304;29;20057;-82
2023/07/05 06:23:51;;;;;;;6.22;3.40;;;15.60;99.90;;;;;;4863512;29;20052;-78
2023/07/05 06:26:20;;;;;;;8.07;3.08;;;15.90;99.90;;;;;;4887669;29;20141;-77
2023/07/05 06:28:46;;;;;;;8.00;3.03;;;15.80;99.90;;;;;;4883386;29;20136;-71
2023/07/05 06:31:12;;;;;;;5.75;3.47;;;15.70;99.90;;;;;;4888851;29;20145;-72
2023/07/05 06:33:41;;;;;;;7.15;3.58;;;16.00;99.90;;;;;;4895796;29;20059;-71
2023/07/05 06:36:07;;;;;;;5.60;3.42;;;16.00;99.90;;;;;;4878427;29;20111;-72
2023/07/05 06:38:33;;;;;;;5.32;3.33;;;15.90;99.90;;;;;;4878312;29;20446;-71
2023/07/05 06:40:59;;;;;;;5.88;3.70;;;15.80;99.90;;;;;;4891623;29;20041;-71
2023/07/05 06:43:25;;;;;;;7.55;3.20;;;15.90;99.90;;;;;;4898838;29;20044;-71
2023/07/05 06:45:54;;;;;;;4.60;3.25;;;15.90;99.90;;;;;;4899003;29;20053;-71
2023/07/05 06:48:21;;;;;;;7.55;3.47;;;15.90;99.90;;;;;;4881916;29;20060;-70
2023/07/05 06:50:51;;;;;;;5.90;2.95;;;15.80;99.90;;;;;;4881865;29;20060;-71
2023/07/05 06:53:17;;;;;;;5.18;3.30;;;15.70;99.90;;;;;;4898496;29;20055;-71
2023/07/05 06:55:43;;;;;;;5.05;3.28;;;15.70;99.90;;;;;;4895259;29;20057;-71
2023/07/05 06:58:08;;;;;;;7.20;3.53;;;15.70;99.90;;;;;;4892963;29;20053;-71
2023/07/05 07:00:37;;;;;;;7.88;3.03;;;15.70;99.90;;;;;;4891595;29;20059;-71
2023/07/05 07:03:02;;;;;;;8.05;3.55;;;15.60;99.90;;;;;;4898699;29;20044;-72
2023/07/05 07:05:31;;;;;;;4.72;2.63;;;15.60;99.90;;;;;;4881758;29;20522;-71
2023/07/05 07:07:56;;;;;;;8.05;3.40;;;15.60;99.90;;;;;;4888136;29;20053;-71
2023/07/05 07:10:22;;;;;;;5.70;2.88;;;15.50;99.90;;;;;;4889944;29;20056;-72
2023/07/05 07:12:48;;;;;;;5.10;3.15;;;15.60;99.90;;;;;;4887795;29;20056;-71
2023/07/05 07:15:14;;;;;;;7.47;3.08;;;15.60;99.90;;;;;;4888503;29;20500;-71
2023/07/05 07:17:39;;;;;;;5.15;2.90;;;15.50;99.90;;;;;;4889279;29;20084;-71
2023/07/05 07:20:06;;;;;;;5.80;3.38;;;15.50;99.90;;;;;;4887140;29;20116;-71
2023/07/05 07:22:32;;;;;;;4.95;2.78;;;15.40;99.90;;;;;;4871660;29;20209;-72
2023/07/05 07:24:58;;;;;;;4.65;2.92;;;15.40;99.90;;;;;;4873688;29;20131;-71
2023/07/05 07:27:25;;;;;;;8.30;3.58;;;15.30;99.90;;;;;;4887294;29;20487;-71
2023/07/05 07:29:53;;;;;;;6.72;3.22;;;15.30;99.90;;;;;;4879384;29;20049;-71
2023/07/05 07:32:20;;;;;;;9.13;3.35;;;15.20;99.90;;;;;;4862361;29;20061;-71
2023/07/05 07:34:45;;;;;;;10.27;2.70;;;15.30;99.90;;;;;;4888334;29;20053;-71
2023/07/05 07:37:11;;;;;;;4.65;2.75;;;15.20;99.90;;;;;;4887188;29;20063;-70
2023/07/05 07:39:37;;;;;;;7.70;2.75;;;15.10;99.90;;;;;;4888983;29;20052;-70
2023/07/05 07:42:03;;;;;;;5.35;2.78;;;15.10;99.90;;;;;;4887690;29;20052;-69
2023/07/05 07:44:29;;;;;;;5.90;3.08;;;15.20;99.90;;;;;;4871239;29;20109;-68
2023/07/05 07:46:57;;;;;;;3.53;2.63;;;15.00;99.90;;;;;;4880198;29;20060;-70
2023/07/05 07:49:22;;;;;;;5.95;2.40;;;14.80;99.90;;;;;;4878970;29;20053;-70
2023/07/05 07:51:48;;;;;;;6.80;1.90;;;14.70;99.90;;;;;;4861801;29;20085;-70
2023/07/05 07:54:26;;;;;;;1.73;1.15;;;14.60;99.90;;;;;;4862394;29;20048;-70
2023/07/05 07:56:54;;;;;;;3.85;1.15;;;14.50;99.90;;;;;;4878420;29;20057;-70
2023/07/05 07:59:20;;;;;;;3.85;1.20;;;14.40;99.90;;;;;;4894953;29;20573;-70
2023/07/05 08:01:46;;;;;;;1.45;0.90;;;14.20;99.90;;;;;;4894326;29;20149;-70
2023/07/05 08:04:14;;;;;;;1.98;1.25;;;14.20;99.90;;;;;;4894618;29;20140;-69
2023/07/05 08:06:45;;;;;;;1.67;1.15;;;14.30;99.90;;;;;;4897270;29;20092;-69
2023/07/05 08:09:18;;;;;;;1.60;1.38;;;14.30;99.90;;;;;;4897386;29;20140;-69
2023/07/05 08:11:44;;;;;;;3.40;1.25;;;14.10;99.90;;;;;;4896913;29;20121;-69
2023/07/05 08:14:13;;;;;;;1.95;1.23;;;14.20;99.90;;;;;;4878299;29;20052;-70
2023/07/05 08:16:39;;;;;;;2.08;1.10;;;14.10;99.90;;;;;;4873949;29;20129;-70
2023/07/05 08:19:05;;;;;;;1.88;0.93;;;14.10;99.90;;;;;;4897101;29;20398;-69
2023/07/05 08:21:31;;;;;;;3.40;1.02;;;14.00;99.90;;;;;;4877101;29;20052;-69
2023/07/05 08:23:57;;;;;;;3.65;0.82;;;13.90;99.90;;;;;;4879502;29;20067;-70
2023/07/05 08:26:23;;;;;;;3.33;1.10;;;13.90;99.90;;;;;;4886268;29;20066;-70
2023/07/05 08:28:49;;;;;;;3.75;0.80;;;13.80;99.90;;;;;;4888665;29;20408;-70
2023/07/05 08:31:15;;;;;;;3.22;1.27;;;13.80;99.90;;;;;;4880243;29;20056;-70
2023/07/05 08:33:43;;;;;;;3.35;1.10;;;13.70;99.90;;;;;;4896787;29;20378;-74
2023/07/05 08:36:12;;;;;;;3.92;1.17;;;13.70;99.90;;;;;;4879866;29;20060;-70
2023/07/05 08:38:39;;;;;;;1.73;0.93;;;13.70;99.90;;;;;;4879987;29;20453;-70
2023/07/05 08:41:33;;;;;;;2.22;1.20;;;13.70;99.90;;;;;;4896974;29;20056;-70
2023/07/05 08:44:27;;;;;;;3.20;1.27;;;13.70;99.90;;;;;;4888121;29;20056;-70
2023/07/05 08:47:01;;;;;;;2.20;1.00;;;13.50;99.90;;;;;;4885857;29;20080;-70
2023/07/05 08:49:34;;;;;;;1.17;1.00;;;13.50;99.90;;;;;;4885415;29;20060;-70
2023/07/05 08:52:01;;;;;;;2.70;1.35;;;13.50;99.90;;;;;;4878120;29;20056;-70
2023/07/05 08:54:32;;;;;;;1.98;1.20;;;13.60;99.90;;;;;;4877956;29;20063;-70
2023/07/05 08:57:19;;;;;;;2.28;1.20;;;13.50;99.90;;;;;;4877732;29;20065;-70
2023/07/05 08:59:54;;;;;;;4.07;1.42;;;13.50;99.90;;;;;;4877730;29;20049;-72
2023/07/05 09:02:20;;;;;;;3.25;1.50;;;13.60;99.90;;;;;;4860807;29;20466;-70
2023/07/05 09:04:47;;;;;;;3.20;1.23;;;13.50;99.90;;;;;;4877479;29;20448;-70
2023/07/05 09:07:44;;;;;;;2.10;1.30;;;13.50;99.90;;;;;;4877605;29;20064;-70
2023/07/05 09:10:13;;;;;;;2.95;1.60;;;13.40;99.90;;;;;;4877475;29;20089;-70
2023/07/05 09:12:46;;;;;;;1.55;1.30;;;13.30;99.90;;;;;;4860601;29;20498;-69
2023/07/05 09:15:20;;;;;;;3.25;1.60;;;13.40;99.90;;;;;;4881013;29;20060;-69
2023/07/05 09:17:49;;;;;;;6.45;1.55;;;13.30;99.90;;;;;;4885705;29;20084;-69
2023/07/05 09:20:30;;;;;;;3.67;1.50;;;13.20;99.90;;;;;;4860393;29;20122;-69
2023/07/05 09:22:59;;;;;;;2.50;1.58;;;13.20;99.90;;;;;;4877305;29;20131;-69
2023/07/05 09:25:27;;;;;;;2.78;1.40;;;13.30;99.90;;;;;;4877552;29;20060;-69
2023/07/05 09:28:23;;;;;;;4.78;1.60;;;13.30;99.90;;;;;;4877139;29;20057;-69
2023/07/05 09:30:50;;;;;;;6.68;1.55;;;13.20;99.90;;;;;;4877012;29;20049;-69
2023/07/05 09:33:36;;;;;;;2.47;1.40;;;13.30;99.90;;;;;;4878136;29;20232;-69
2023/07/05 09:36:10;;;;;;;5.82;1.70;;;13.30;99.90;;;;;;4878568;29;20167;-69
2023/07/05 09:38:44;;;;;;;3.50;1.83;;;13.30;99.90;;;;;;4878852;29;20140;-69
2023/07/05 09:41:20;;;;;;;3.58;1.73;;;13.30;99.90;;;;;;4877516;29;20074;-69
2023/07/05 09:43:46;;;;;;;4.78;1.88;;;13.40;99.90;;;;;;4878813;29;20690;-72
2023/07/05 09:46:28;;;;;;;7.43;1.77;;;13.40;99.90;;;;;;4876479;29;20067;-70
2023/07/05 09:48:55;;;;;;;3.83;1.73;;;13.50;99.90;;;;;;4895693;29;20063;-70
2023/07/05 09:51:22;;;;;;;9.80;2.67;;;13.50;99.90;;;;;;4895954;29;20114;-70
2023/07/05 09:54:03;;;;;;;5.72;2.47;;;13.50;99.90;;;;;;4895749;29;20092;-69
2023/07/05 09:56:29;;;;;;;9.13;2.10;;;13.60;99.90;;;;;;4889804;29;20064;-71
2023/07/05 09:59:13;;;;;;;6.15;2.10;;;13.60;99.90;;;;;;4864203;29;20056;-72
2023/07/05 10:01:42;;;;;;;6.38;1.67;;;13.60;99.90;;;;;;4883113;29;20049;-71
2023/07/05 10:04:08;;;;;;;5.53;2.47;;;13.60;99.90;;;;;;4873142;29;20084;-71
2023/07/05 10:06:38;;;;;;;13.45;2.30;;;13.60;99.90;;;;;;4890978;29;20057;-71
2023/07/05 10:09:24;;;;;;;7.03;2.53;;;13.40;99.90;;;;;;4895322;29;20059;-71
2023/07/05 10:11:53;;;;;;;6.40;1.80;;;13.50;99.90;;;;;;4892417;29;20446;-71
2023/07/05 10:14:21;;;;;;;16.02;2.40;;;13.50;99.90;;;;;;4887867;29;20516;-71
2023/07/05 10:16:49;;;;;;;6.70;2.42;;;13.60;99.90;;;;;;4888882;29;20044;-72
2023/07/05 10:19:26;;;;;;;6.57;2.03;;;13.60;99.90;;;;;;4866011;29;20600;-71
2023/07/05 10:22:02;;;;;;;7.35;1.98;;;13.60;99.90;;;;;;4880935;29;20088;-72
2023/07/05 10:24:31;;;;;;;4.80;1.63;;;13.60;99.90;;;;;;4880555;29;20080;-72
2023/07/05 10:27:24;;;;;;;4.70;1.73;;;13.60;99.90;;;;;;4880413;29;20065;-71
2023/07/05 10:30:01;;;;;;;8.85;2.78;;;13.50;99.90;;;;;;4856817;29;20065;-72
2023/07/05 10:32:28;;;;;;;6.22;1.90;;;13.60;99.90;;;;;;4880639;29;20185;-71
2023/07/05 10:34:55;;;;;;;10.15;2.03;;;13.60;99.90;;;;;;4863972;29;20052;-71
2023/07/05 10:37:28;;;;;;;6.53;1.80;;;13.70;99.90;;;;;;4880564;29;20049;-71
2023/07/05 10:39:55;;;;;;;7.03;1.70;;;13.70;99.90;;;;;;4863812;29;20404;-70
2023/07/05 10:42:22;;;;;;;8.13;1.80;;;13.70;99.90;;;;;;4863594;29;20568;-71
2023/07/05 10:44:48;;;;;;;4.38;1.55;;;13.70;99.90;;;;;;4863304;29;20144;-71
2023/07/05 10:47:14;;;;;;;9.65;2.05;;;13.70;99.90;;;;;;4880090;29;20053;-71
2023/07/05 10:49:43;;;;;;;7.78;1.45;;;13.70;99.90;;;;;;4880129;29;20049;-71
2023/07/05 10:52:15;;;;;;;9.27;2.17;;;13.70;99.90;;;;;;4879910;29;20063;-71
2023/07/05 10:54:58;;;;;;;;;;;13.70;99.90;;;;;;4880778;29;20056;-71
2023/07/05 10:57:32;;;;;;;4.45;2.30;;;13.70;99.90;;;;;;4880074;29;19930;-71
2023/07/05 11:00:11;;;;;;;7.18;1.90;;;13.60;99.90;;;;;;4880331;29;20055;-71
2023/07/05 11:02:40;;;;;;;8.68;2.15;;;13.60;99.90;;;;;;4884440;29;20390;-71
2023/07/05 11:05:38;;;;;;;7.28;2.15;;;13.60;99.90;;;;;;4896473;29;20056;-71
2023/07/05 11:08:11;;;;;;;6.22;2.30;;;13.50;99.90;;;;;;4879841;29;20060;-71
2023/07/05 11:10:41;;;;;;;11.18;2.55;;;13.50;99.90;;;;;;4862992;29;20139;-71
2023/07/05 11:13:18;;;;;;;8.23;2.35;;;13.50;99.90;;;;;;4889258;29;20100;-71
2023/07/05 11:15:45;;;;;;;5.65;2.20;;;13.50;99.90;;;;;;4898496;29;20060;-71
2023/07/05 11:18:20;;;;;;;3.45;1.60;;;13.40;99.90;;;;;;4898507;29;20072;-71
2023/07/05 11:20:47;;;;;;;12.32;3.13;;;13.40;99.90;;;;;;4881287;29;20511;-70
2023/07/05 11:23:42;;;;;;;10.20;3.67;;;13.50;99.90;;;;;;4888448;29;20150;-72
2023/07/05 11:26:08;;;;;;;7.93;2.10;;;13.60;99.90;;;;;;4878524;29;20061;-71
2023/07/05 11:28:38;;;;;;;11.60;2.60;;;13.60;99.90;;;;;;4862753;29;20189;-73
2023/07/05 11:31:06;;;;;;;4.20;2.00;;;13.50;99.90;;;;;;4862795;29;20418;-75
2023/07/05 11:33:32;;;;;;;7.32;2.40;;;13.60;99.90;;;;;;4891582;29;20147;-72
2023/07/05 11:36:08;;;;;;;9.52;2.50;;;13.70;99.90;;;;;;4898185;29;20056;-74
2023/07/05 11:38:40;;;;;;;13.68;2.80;;;13.60;99.90;;;;;;4893937;29;20132;-74
2023/07/05 11:41:08;;;;;;;10.27;2.17;;;13.60;99.90;;;;;;4891103;29;20405;-74
2023/07/05 11:43:42;;;;;;;8.07;2.67;;;13.70;99.90;;;;;;4891296;29;20051;-74
2023/07/05 11:46:33;;;;;;;5.00;1.90;;;13.60;99.90;;;;;;4890853;29;20070;-73
2023/07/05 11:49:20;;;;;;;4.60;1.80;;;13.60;99.90;;;;;;4871592;29;20143;-74
2023/07/05 11:52:10;;;;;;;10.23;3.13;;;13.50;99.90;;;;;;4885277;29;20044;-74
2023/07/05 11:54:57;;;;;;;5.00;1.58;;;13.60;99.90;;;;;;4882705;29;20477;-73
2023/07/05 11:57:23;;;;;;;8.00;1.75;;;13.60;99.90;;;;;;4867123;29;20065;-73
2023/07/05 12:00:12;;;;;;;6.68;2.03;;;13.60;99.90;;;;;;4904583;29;20072;-73
2023/07/05 12:02:59;;;;;;;10.85;1.88;;;13.60;99.90;;;;;;4880584;29;20054;-74
2023/07/05 12:05:28;;;;;;;4.60;1.42;;;13.60;99.90;;;;;;4870119;29;20052;-76
2023/07/05 12:08:19;;;;;;;7.97;2.20;;;13.60;99.90;;;;;;4894319;29;20088;-74
2023/07/05 12:11:03;;;;;;;5.03;1.63;;;13.70;99.90;;;;;;4893767;29;20049;-76
2023/07/05 12:13:33;;;;;;;5.10;1.75;;;13.70;99.90;;;;;;4876548;29;20059;-75
2023/07/05 12:16:01;;;;;;;4.88;1.75;;;13.70;99.90;;;;;;4891548;29;20132;-73
2023/07/05 12:18:30;;;;;;;7.20;2.05;;;13.70;99.90;;;;;;4885869;29;20409;-73
2023/07/05 12:20:58;;;;;;;6.13;2.08;;;13.70;99.90;;;;;;4888564;29;20505;-73
2023/07/05 12:23:29;;;;;;;7.18;3.40;;;13.80;99.90;;;;;;4890002;29;20048;-74
2023/07/05 12:25:57;;;;;;;6.38;1.60;;;13.80;99.90;;;;;;4868205;29;20435;-73
2023/07/05 12:28:28;;;;;;;4.40;1.27;;;13.90;99.90;;;;;;4880727;29;20053;-73
2023/07/05 12:30:59;;;;;;;6.47;2.10;;;13.90;99.90;;;;;;4877571;29;20382;-73
2023/07/05 12:33:28;;;;;;;6.18;1.75;;;14.00;99.90;;;;;;4861384;29;20548;-73
2023/07/05 12:36:11;;;;;;;6.20;1.80;;;14.10;99.90;;;;;;4884334;29;20064;-73
2023/07/05 12:38:40;;;;;;;5.32;1.90;;;14.10;99.90;;;;;;4896063;29;20112;-72
2023/07/05 12:41:14;;;;;;;7.60;2.20;;;14.10;99.90;;;;;;4896683;29;20048;-73
2023/07/05 12:43:40;;;;;;;6.75;2.28;;;14.20;99.90;;;;;;4896863;29;20100;-72
2023/07/05 12:46:06;;;;;;;9.68;3.42;;;14.30;99.90;;;;;;4896822;29;20053;-73
2023/07/05 12:48:32;;;;;;;11.93;2.08;;;14.30;99.90;;;;;;4877879;29;20048;-73
2023/07/05 12:51:06;;;;;;;9.90;2.30;;;14.30;99.90;;;;;;4876382;29;20057;-73
2023/07/05 12:53:32;;;;;;;6.55;2.53;;;14.40;99.90;;;;;;4873589;29;20095;-73
2023/07/05 12:56:08;;;;;;;8.95;2.22;;;14.40;99.90;;;;;;4870120;29;20124;-74
2023/07/05 12:58:35;;;;;;;10.35;2.42;;;14.40;99.90;;;;;;4883036;29;20045;-73